METAR AND TAF INFORMATION

METAR FOR LERS
ADDS - METARS form results

(0027 UTC 05 December 2022)
Data provider http://aviationweather.gov/metar/data/
 
METAR text: LERS 050000Z AUTO 04005KT 9999 FEW043 05/02 Q1016
Conditions at: LERS (REUS (CIV/MIL) , ES) observed 0000 UTC 05 December 2022
Temperature: 5.0°C (41°F)
Dewpoint: 2.0°C (36°F) [RH = 81%]
Pressure (altimeter): 30.00 inches Hg (1016.0 mb)
Winds: from the NE (40 degrees) at 6 MPH (5 knots; 2.6 m/s)
Visibility: 6 or more miles (10+ km)
Ceiling: at least 12,000 feet AGL
Clouds: few clouds at 4300 feet AGL
Weather: no significant weather observed at this time

METAR text: LERS 042330Z AUTO 36005KT 9999 FEW044 08/02 Q1016
Conditions at: LERS (REUS (CIV/MIL) , ES) observed 2330 UTC 04 December 2022
Temperature: 8.0°C (46°F)
Dewpoint: 2.0°C (36°F) [RH = 66%]
Pressure (altimeter): 30.00 inches Hg (1016.0 mb)
Winds: from the N (360 degrees) at 6 MPH (5 knots; 2.6 m/s)
Visibility: 6 or more miles (10+ km)
Ceiling: at least 12,000 feet AGL
Clouds: few clouds at 4400 feet AGL
Weather: no significant weather observed at this time

Forecast for: LERS (REUS (CIV/MIL) , ES)
Text: TAF LERS 042000Z 0421/0521 VRB04KT 9999 FEW025 TX15/0512Z TN03/0506Z
Forecast period: 2100 UTC 04 December 2022 to 2100 UTC 05 December 2022
Forecast type: FROM: standard forecast or significant change
Winds: variable direction winds at 5 MPH (4 knots; 2.1 m/s)
Visibility: 6 or more miles (10+ km)
Ceiling: at least 12,000 feet AGL
Clouds: few clouds at 2500 feet AGL
Weather: no significant weather forecast for this period

 

AIRPORT MAP

 

RUNWAY INFORMATION

Runway 07 Runway length 8054 ft Runway width 148 ft
Runway elevation 231 ft Runway displaced threshold 853 ft Runway heading 69
Runway 25 Runway length 8054 ft Runway width 148 ft
Runway elevation 234 ft Runway displaced threshold 0 ft Runway heading 249
Runway 12 Runway length 3117 ft Runway width 115 ft
Runway elevation 226 ft Runway displaced threshold 0 ft Runway heading 111
Runway 30 Runway length 3117 ft Runway width 115 ft
Runway elevation 198 ft Runway displaced threshold 0 ft Runway heading 291

 

AIRPORT FREQUENCIES

Type APP Name APP Frequency 118.15 MHZ
Type GND Name GND Frequency 121.7 MHZ
Type TWR Name TWR Frequency 118.15 MHZ

 

AIRPORT NEAR NAVIGATION AIDS

Type VOR-DME Name Reus Frequency 114200 KHZ
Type NDB Name Reus Frequency 424 KHZ